createdAt,value
2022-07-30T00:01:18.898Z,2.85
2022-07-30T00:03:47.266Z,2.90
2022-07-30T00:06:15.503Z,3.38
2022-07-30T00:08:44.025Z,2.53
2022-07-30T00:11:13.486Z,4.82
2022-07-30T00:13:41.650Z,3.10
2022-07-30T00:16:09.769Z,2.70
2022-07-30T00:18:38.001Z,2.50
2022-07-30T00:21:06.797Z,2.35
2022-07-30T00:23:39.509Z,3.35
2022-07-30T00:26:20.902Z,3.20
2022-07-30T00:28:49.288Z,2.95
2022-07-30T00:31:17.956Z,3.10
2022-07-30T00:33:47.007Z,3.33
2022-07-30T00:36:15.187Z,3.17
2022-07-30T00:38:44.696Z,2.80
2022-07-30T00:41:13.020Z,2.70
2022-07-30T00:43:47.062Z,2.60
2022-07-30T00:46:15.559Z,2.80
2022-07-30T00:48:44.263Z,2.90
2022-07-30T00:51:12.536Z,2.65
2022-07-30T00:53:41.087Z,3.10
2022-07-30T00:56:12.364Z,2.88
2022-07-30T00:58:40.622Z,2.53
2022-07-30T01:01:10.442Z,3.10
2022-07-30T01:03:39.082Z,2.75
2022-07-30T01:06:07.240Z,3.35
2022-07-30T01:08:43.394Z,2.90
2022-07-30T01:11:12.157Z,3.13
2022-07-30T01:13:44.113Z,2.93
2022-07-30T01:16:15.817Z,2.60
2022-07-30T01:19:03.997Z,2.90
2022-07-30T01:21:38.129Z,2.70
2022-07-30T01:24:22.105Z,2.90
2022-07-30T01:26:55.666Z,2.63
2022-07-30T01:29:25.222Z,2.55
2022-07-30T01:31:59.564Z,2.65
2022-07-30T01:34:31.322Z,2.95
2022-07-30T01:37:02.423Z,2.75
2022-07-30T01:39:31.694Z,3.10
2022-07-30T01:42:05.331Z,3.15
2022-07-30T01:44:34.075Z,3.00
2022-07-30T01:47:04.048Z,3.08
2022-07-30T01:49:35.714Z,2.75
2022-07-30T01:52:04.623Z,3.13
2022-07-30T01:54:34.715Z,2.83
2022-07-30T01:57:08.335Z,3.20
2022-07-30T01:59:38.074Z,3.45
2022-07-30T02:02:06.305Z,3.00
2022-07-30T02:04:35.242Z,3.00
2022-07-30T02:07:07.533Z,3.10
2022-07-30T02:09:38.882Z,2.80
2022-07-30T02:12:29.798Z,2.72
2022-07-30T02:15:15.491Z,2.53
2022-07-30T02:17:46.734Z,2.90
2022-07-30T02:20:17.377Z,2.70
2022-07-30T02:22:48.212Z,2.67
2022-07-30T02:25:19.962Z,2.78
2022-07-30T02:27:53.538Z,2.70
2022-07-30T02:30:27.874Z,2.83
2022-07-30T02:33:01.108Z,2.80
2022-07-30T02:35:32.737Z,2.65
2022-07-30T02:38:03.629Z,2.67
2022-07-30T02:40:32.956Z,2.72
2022-07-30T02:43:03.603Z,3.03
2022-07-30T02:45:32.468Z,2.90
2022-07-30T02:48:03.399Z,2.53
2022-07-30T02:50:33.103Z,2.72
2022-07-30T02:53:03.684Z,2.80
2022-07-30T02:55:36.199Z,2.85
2022-07-30T02:58:07.588Z,2.58
2022-07-30T03:00:37.095Z,2.80
2022-07-30T03:03:07.790Z,2.53
2022-07-30T03:05:40.654Z,2.88
2022-07-30T03:08:10.041Z,2.75
2022-07-30T03:10:40.767Z,2.72
2022-07-30T03:13:11.489Z,2.50
2022-07-30T03:15:46.938Z,2.90
2022-07-30T03:18:17.671Z,2.65
2022-07-30T03:20:50.030Z,3.33
2022-07-30T03:23:19.650Z,2.80
2022-07-30T03:25:52.156Z,2.45
2022-07-30T03:28:25.332Z,2.92
2022-07-30T03:30:54.626Z,2.50
2022-07-30T03:33:24.609Z,2.90
2022-07-30T03:36:10.884Z,2.72
2022-07-30T03:38:40.566Z,2.40
2022-07-30T03:41:12.767Z,3.00
2022-07-30T03:43:44.746Z,2.97
2022-07-30T03:46:15.069Z,2.97
2022-07-30T03:48:47.434Z,2.30
2022-07-30T03:51:17.916Z,3.20
2022-07-30T03:53:47.616Z,2.70
2022-07-30T03:56:37.558Z,2.63
2022-07-30T03:59:14.858Z,2.67
2022-07-30T04:01:45.760Z,2.67
2022-07-30T04:04:25.774Z,2.40
2022-07-30T04:06:55.191Z,2.40
2022-07-30T04:09:23.446Z,2.90
2022-07-30T04:11:53.825Z,2.60
2022-07-30T04:14:28.498Z,2.35
2022-07-30T04:17:03.623Z,2.67
2022-07-30T04:19:39.457Z,2.53
2022-07-30T04:22:10.148Z,2.25
2022-07-30T04:24:40.927Z,2.35
2022-07-30T04:27:09.284Z,2.33
2022-07-30T04:29:39.432Z,2.38
2022-07-30T04:32:09.739Z,2.25
2022-07-30T04:34:57.991Z,1.95
2022-07-30T04:37:44.889Z,2.47
2022-07-30T04:40:13.250Z,2.08
2022-07-30T04:42:41.440Z,2.35
2022-07-30T04:45:13.955Z,2.72
2022-07-30T04:47:53.816Z,2.28
2022-07-30T04:50:34.193Z,2.20
2022-07-30T04:53:03.707Z,2.20
2022-07-30T04:55:43.449Z,2.35
2022-07-30T04:58:13.315Z,2.20
2022-07-30T05:00:44.257Z,2.10
2022-07-30T05:03:16.378Z,2.08
2022-07-30T05:05:57.115Z,2.72
2022-07-30T05:08:25.805Z,2.10
2022-07-30T05:10:54.527Z,2.42
2022-07-30T05:13:22.671Z,1.80
2022-07-30T05:16:04.112Z,1.92
2022-07-30T05:18:32.404Z,2.65
2022-07-30T05:21:01.315Z,1.88
2022-07-30T05:23:32.958Z,2.20
2022-07-30T05:26:22.526Z,2.10
2022-07-30T05:28:57.294Z,2.45
2022-07-30T05:31:39.928Z,2.42
2022-07-30T05:34:08.384Z,2.47
2022-07-30T05:36:44.615Z,2.60
2022-07-30T05:39:16.325Z,2.80
2022-07-30T05:41:53.609Z,2.30
2022-07-30T05:44:26.803Z,2.20
2022-07-30T05:46:56.227Z,2.70
2022-07-30T05:49:24.575Z,2.40
2022-07-30T05:52:03.306Z,2.80
2022-07-30T05:54:34.553Z,2.15
2022-07-30T05:57:21.299Z,2.30
2022-07-30T05:59:50.415Z,2.00
2022-07-30T06:02:30.707Z,2.28
2022-07-30T06:05:28.235Z,2.28
2022-07-30T06:07:59.735Z,2.20
2022-07-30T06:10:30.098Z,1.88
2022-07-30T06:12:58.579Z,2.10
2022-07-30T06:15:27.590Z,1.88
2022-07-30T06:18:01.718Z,2.25
2022-07-30T06:20:51.833Z,2.55
2022-07-30T06:23:42.794Z,2.40
2022-07-30T06:26:16.781Z,2.13
2022-07-30T06:28:45.450Z,2.60
2022-07-30T06:31:31.516Z,2.33
2022-07-30T06:34:01.375Z,2.28
2022-07-30T06:36:34.554Z,1.95
2022-07-30T06:39:06.507Z,2.47
2022-07-30T06:41:54.847Z,2.30
2022-07-30T06:44:22.913Z,2.10
2022-07-30T06:46:50.960Z,2.20
2022-07-30T06:49:23.154Z,2.30
2022-07-30T06:51:51.465Z,2.47
2022-07-30T06:54:21.565Z,2.72
2022-07-30T06:57:12.242Z,2.60
2022-07-30T06:59:55.995Z,2.05
2022-07-30T07:02:35.666Z,2.03
2022-07-30T07:05:12.034Z,2.53
2022-07-30T07:10:27.090Z,2.38
2022-07-30T07:13:12.805Z,2.15
2022-07-30T07:15:41.182Z,2.20
2022-07-30T07:18:15.223Z,1.80
2022-07-30T07:20:50.947Z,2.10
2022-07-30T07:23:19.720Z,1.98
2022-07-30T07:25:53.799Z,2.10
2022-07-30T07:28:33.207Z,2.10
2022-07-30T07:31:02.270Z,2.35
2022-07-30T07:33:31.527Z,2.10
2022-07-30T07:36:01.291Z,2.08
2022-07-30T07:38:33.565Z,2.00
2022-07-30T07:41:01.907Z,1.98
2022-07-30T07:43:31.086Z,2.40
2022-07-30T07:46:02.997Z,2.30
2022-07-30T07:48:33.861Z,2.72
2022-07-30T07:51:34.754Z,1.92
2022-07-30T07:56:52.859Z,2.13
2022-07-30T07:59:26.027Z,2.17
2022-07-30T08:02:10.902Z,2.10
2022-07-30T08:04:54.033Z,2.20
2022-07-30T08:07:45.322Z,2.20
2022-07-30T08:10:16.571Z,1.90
2022-07-30T08:13:07.562Z,2.10
2022-07-30T08:16:16.003Z,2.47
2022-07-30T08:19:16.494Z,2.30
2022-07-30T08:21:55.299Z,1.70
2022-07-30T08:24:32.729Z,2.28
2022-07-30T08:27:01.612Z,2.33
2022-07-30T08:29:31.097Z,2.58
2022-07-30T08:32:00.097Z,2.03
2022-07-30T08:34:29.323Z,2.92
2022-07-30T08:36:59.682Z,2.38
2022-07-30T08:39:28.304Z,3.67
2022-07-30T08:42:01.806Z,3.72
2022-07-30T08:44:31.313Z,2.00
2022-07-30T08:47:01.282Z,1.90
2022-07-30T08:49:50.737Z,2.72
2022-07-30T08:52:24.608Z,2.20
2022-07-30T08:55:02.531Z,2.13
2022-07-30T08:57:32.450Z,2.15
2022-07-30T09:00:02.694Z,2.00
2022-07-30T09:02:33.332Z,2.35
2022-07-30T09:05:08.293Z,2.10
2022-07-30T09:07:37.501Z,2.47
2022-07-30T09:10:13.313Z,2.42
2022-07-30T09:12:44.526Z,2.30
2022-07-30T09:15:15.705Z,2.05
2022-07-30T09:17:48.751Z,2.28
2022-07-30T09:20:17.723Z,2.85
2022-07-30T09:22:48.146Z,1.88
2022-07-30T09:25:48.032Z,2.30
2022-07-30T09:28:36.412Z,2.25
2022-07-30T09:34:38.017Z,2.47
2022-07-30T09:37:18.739Z,2.42
2022-07-30T09:40:15.040Z,2.25
2022-07-30T09:43:07.828Z,2.10
2022-07-30T09:45:56.781Z,2.30
2022-07-30T09:48:28.172Z,2.47
2022-07-30T09:50:57.313Z,2.50
2022-07-30T09:53:26.560Z,2.05
2022-07-30T09:55:54.877Z,3.00
2022-07-30T09:58:27.230Z,2.53
2022-07-30T10:01:00.563Z,2.25
2022-07-30T10:03:52.157Z,2.05
2022-07-30T10:06:56.075Z,2.50
2022-07-30T10:09:37.283Z,2.40
2022-07-30T10:12:11.245Z,2.03
2022-07-30T10:14:46.530Z,2.38
2022-07-30T10:17:20.227Z,2.30
2022-07-30T10:20:16.580Z,1.92
2022-07-30T10:23:09.070Z,2.65
2022-07-30T10:25:49.509Z,1.67
2022-07-30T10:28:54.139Z,2.60
2022-07-30T10:31:47.238Z,2.30
2022-07-30T10:34:18.853Z,1.98
2022-07-30T10:36:54.887Z,2.03
2022-07-30T10:39:29.001Z,2.58
2022-07-30T10:42:12.302Z,2.35
2022-07-30T10:44:56.823Z,2.10
2022-07-30T10:47:29.322Z,2.15
2022-07-30T10:50:12.493Z,2.13
2022-07-30T10:53:02.584Z,2.30
2022-07-30T10:55:38.481Z,1.50
2022-07-30T10:58:10.334Z,2.05
2022-07-30T11:00:59.734Z,1.83
2022-07-30T11:03:40.073Z,1.77
2022-07-30T11:06:29.804Z,1.73
2022-07-30T11:08:58.358Z,2.03
2022-07-30T11:12:04.795Z,1.75
2022-07-30T11:15:06.603Z,1.40
2022-07-30T11:18:04.521Z,1.70
2022-07-30T11:20:33.785Z,1.10
2022-07-30T11:23:39.501Z,1.55
2022-07-30T11:26:08.460Z,2.42
2022-07-30T11:28:45.274Z,2.00
2022-07-30T11:31:55.530Z,1.80
2022-07-30T11:34:30.512Z,2.17
2022-07-30T11:37:19.129Z,2.10
2022-07-30T11:40:14.620Z,1.95
2022-07-30T11:42:44.954Z,1.75
2022-07-30T11:45:29.784Z,1.50
2022-07-30T11:48:01.504Z,1.73
2022-07-30T11:50:32.972Z,1.70
2022-07-30T11:53:03.122Z,1.45
2022-07-30T11:55:35.093Z,1.90
2022-07-30T11:58:06.623Z,1.67
2022-07-30T12:00:37.006Z,1.77
2022-07-30T12:03:13.020Z,1.67
2022-07-30T12:05:41.844Z,1.35
2022-07-30T12:08:31.660Z,1.70
2022-07-30T12:11:02.497Z,1.70
2022-07-30T12:13:44.279Z,1.90
2022-07-30T12:16:14.962Z,2.03
2022-07-30T12:18:43.437Z,1.83
2022-07-30T12:21:13.663Z,1.95
2022-07-30T12:23:43.773Z,1.50
2022-07-30T12:26:24.541Z,1.85
2022-07-30T12:28:55.667Z,2.03
2022-07-30T12:31:26.542Z,2.00
2022-07-30T12:33:56.323Z,1.80
2022-07-30T12:36:29.624Z,1.67
2022-07-30T12:38:58.139Z,1.85
2022-07-30T12:41:43.616Z,1.58
2022-07-30T12:44:12.275Z,1.85
2022-07-30T12:46:42.470Z,1.95
2022-07-30T12:49:22.134Z,1.88
2022-07-30T12:52:00.262Z,1.60
2022-07-30T12:54:29.895Z,1.60
2022-07-30T12:57:03.025Z,1.85
2022-07-30T12:59:35.609Z,1.50
2022-07-30T13:02:05.312Z,1.20
2022-07-30T13:04:38.350Z,1.88
2022-07-30T13:07:10.841Z,1.90
2022-07-30T13:09:39.998Z,1.50
2022-07-30T13:12:13.416Z,1.70
2022-07-30T13:14:41.521Z,2.13
2022-07-30T13:17:10.917Z,1.60
2022-07-30T13:19:39.340Z,2.05
2022-07-30T13:22:07.449Z,1.63
2022-07-30T13:24:40.701Z,4.68
2022-07-30T13:27:17.054Z,2.08
2022-07-30T13:29:45.783Z,1.75
2022-07-30T13:32:13.828Z,1.80
2022-07-30T13:34:42.709Z,1.40
2022-07-30T13:37:10.986Z,2.05
2022-07-30T13:39:39.251Z,1.55
2022-07-30T13:42:07.433Z,1.40
2022-07-30T13:44:36.936Z,1.63
2022-07-30T13:47:08.484Z,1.63
2022-07-30T13:49:39.064Z,1.70
2022-07-30T13:52:07.247Z,2.13
2022-07-30T13:54:35.464Z,2.00
2022-07-30T13:57:04.061Z,1.70
2022-07-30T13:59:33.562Z,1.75
2022-07-30T14:02:04.974Z,1.35
2022-07-30T14:04:35.390Z,1.65
2022-07-30T14:07:04.290Z,1.90
2022-07-30T14:09:33.072Z,1.95
2022-07-30T14:12:13.739Z,1.70
2022-07-30T14:14:42.063Z,1.60
2022-07-30T14:17:12.299Z,1.75
2022-07-30T14:19:40.412Z,1.80
2022-07-30T14:22:08.870Z,1.75
2022-07-30T14:24:37.456Z,1.83
2022-07-30T14:27:06.322Z,1.95
2022-07-30T14:29:34.735Z,2.97
2022-07-30T14:32:03.094Z,1.70
2022-07-30T14:34:32.951Z,1.98
2022-07-30T14:37:01.751Z,2.22
2022-07-30T14:39:30.052Z,1.98
2022-07-30T14:42:00.303Z,2.15
2022-07-30T14:44:28.649Z,1.65
2022-07-30T14:46:56.720Z,2.00
2022-07-30T14:49:25.170Z,1.88
2022-07-30T14:51:55.549Z,1.98
2022-07-30T14:54:23.878Z,1.92
2022-07-30T14:56:57.713Z,2.00
2022-07-30T14:59:27.818Z,1.88
2022-07-30T15:01:56.594Z,1.65
2022-07-30T15:04:25.562Z,1.95
2022-07-30T15:06:55.450Z,1.67
2022-07-30T15:09:23.561Z,1.70
2022-07-30T15:12:08.392Z,2.00
2022-07-30T15:14:38.620Z,2.17
2022-07-30T15:17:08.359Z,2.53
2022-07-30T15:19:37.152Z,2.00
2022-07-30T15:22:16.205Z,1.92
2022-07-30T15:24:44.414Z,2.13
2022-07-30T15:27:15.209Z,1.83
2022-07-30T15:29:44.491Z,2.70
2022-07-30T15:32:13.026Z,2.25
2022-07-30T15:34:43.715Z,1.92
2022-07-30T15:37:13.785Z,2.33
2022-07-30T15:39:44.024Z,2.00
2022-07-30T15:42:12.562Z,2.03
2022-07-30T15:44:48.433Z,1.92
2022-07-30T15:47:19.940Z,2.13
2022-07-30T15:49:48.437Z,2.30
2022-07-30T15:52:18.361Z,2.63
2022-07-30T15:54:50.505Z,2.08
2022-07-30T15:57:20.886Z,2.45
2022-07-30T15:59:49.237Z,2.30
2022-07-30T16:02:17.688Z,3.45
2022-07-30T16:04:48.095Z,4.22
2022-07-30T16:07:17.009Z,2.95
2022-07-30T16:09:45.253Z,2.58
2022-07-30T16:12:15.188Z,2.33
2022-07-30T16:14:43.557Z,2.65
2022-07-30T16:17:14.134Z,2.03
2022-07-30T16:19:45.141Z,2.00
2022-07-30T16:22:14.990Z,1.40
2022-07-30T16:24:50.444Z,1.70
2022-07-30T16:27:20.193Z,1.75
2022-07-30T16:29:48.901Z,2.03
2022-07-30T16:32:16.935Z,2.83
2022-07-30T16:34:45.069Z,3.00
2022-07-30T16:37:16.418Z,3.10
2022-07-30T16:39:44.550Z,7.45
2022-07-30T16:42:12.651Z,6.13
2022-07-30T16:44:42.619Z,2.67
2022-07-30T16:47:13.813Z,4.10
2022-07-30T16:49:42.735Z,3.50
2022-07-30T16:52:10.849Z,2.08
2022-07-30T16:54:39.212Z,3.35
2022-07-30T16:57:09.859Z,4.43
2022-07-30T16:59:38.992Z,3.20
2022-07-30T17:02:13.468Z,4.60
2022-07-30T17:04:41.898Z,11.85
2022-07-30T17:07:10.032Z,4.28
2022-07-30T17:09:38.357Z,3.15
2022-07-30T17:12:09.528Z,2.50
2022-07-30T17:14:40.727Z,3.78
2022-07-30T17:17:13.788Z,2.17
2022-07-30T17:19:44.202Z,3.80
2022-07-30T17:22:12.713Z,3.28
2022-07-30T17:24:41.651Z,2.60
2022-07-30T17:27:09.815Z,4.22
2022-07-30T17:29:50.091Z,4.10
2022-07-30T17:32:19.744Z,3.28
2022-07-30T17:34:49.577Z,3.17
2022-07-30T17:37:17.797Z,4.65
2022-07-30T17:40:19.818Z,6.68
2022-07-30T17:42:37.772Z,3.58
2022-07-30T17:45:06.817Z,4.30
2022-07-30T17:47:34.988Z,3.30
2022-07-30T17:50:05.498Z,2.53
2022-07-30T17:52:33.725Z,2.78
2022-07-30T17:55:02.004Z,2.65
2022-07-30T17:57:30.161Z,4.88
2022-07-30T17:59:58.372Z,2.60
2022-07-30T18:02:28.599Z,2.78
2022-07-30T18:04:57.043Z,3.45
2022-07-30T18:07:26.725Z,2.88
2022-07-30T18:09:55.065Z,2.38
2022-07-30T18:12:23.359Z,3.38
2022-07-30T18:14:51.956Z,3.00
2022-07-30T18:17:20.116Z,3.00
2022-07-30T18:19:48.236Z,4.15
2022-07-30T18:22:22.267Z,3.33
2022-07-30T18:25:00.345Z,5.10
2022-07-30T18:27:28.862Z,4.22
2022-07-30T18:29:57.047Z,3.70
2022-07-30T18:32:25.610Z,3.72
2022-07-30T18:34:53.780Z,3.22
2022-07-30T18:37:21.892Z,3.40
2022-07-30T18:39:50.002Z,2.70
2022-07-30T18:42:19.620Z,3.08
2022-07-30T18:44:47.864Z,3.25
2022-07-30T18:47:16.061Z,3.85
2022-07-30T18:49:44.221Z,3.85
2022-07-30T18:52:12.994Z,3.72
2022-07-30T18:54:42.120Z,3.17
2022-07-30T18:57:14.304Z,2.83
2022-07-30T18:59:44.453Z,4.30
2022-07-30T19:02:12.708Z,3.10
2022-07-30T19:04:42.008Z,3.38
2022-07-30T19:07:10.423Z,3.30
2022-07-30T19:09:38.736Z,2.97
2022-07-30T19:12:07.341Z,3.13
2022-07-30T19:14:36.058Z,3.60
2022-07-30T19:17:14.227Z,3.75
2022-07-30T19:19:43.636Z,3.38
2022-07-30T19:22:12.038Z,3.50
2022-07-30T19:24:43.856Z,3.00
2022-07-30T19:27:14.308Z,3.47
2022-07-30T19:29:45.379Z,3.72
2022-07-30T19:32:17.354Z,3.45
2022-07-30T19:34:45.772Z,3.67
2022-07-30T19:37:14.065Z,3.58
2022-07-30T19:40:05.247Z,4.15
2022-07-30T19:42:31.031Z,4.10
2022-07-30T19:45:04.347Z,4.35
2022-07-30T19:47:42.320Z,4.30
2022-07-30T19:50:11.912Z,5.30
2022-07-30T19:52:51.162Z,4.70
2022-07-30T19:55:35.832Z,5.07
2022-07-30T19:58:16.341Z,4.07
2022-07-30T20:00:49.208Z,4.82
2022-07-30T20:03:25.975Z,4.82
2022-07-30T20:05:59.522Z,5.35
2022-07-30T20:08:28.557Z,5.18
2022-07-30T20:10:58.580Z,4.63
2022-07-30T20:13:45.450Z,4.53
2022-07-30T20:16:14.864Z,4.10
2022-07-30T20:18:46.903Z,5.45
2022-07-30T20:21:17.854Z,4.03
2022-07-30T20:23:46.666Z,3.92
2022-07-30T20:26:15.895Z,4.85
2022-07-30T20:28:47.946Z,3.42
2022-07-30T20:31:21.351Z,3.72
2022-07-30T20:33:51.150Z,4.15
2022-07-30T20:36:19.340Z,3.45
2022-07-30T20:38:47.872Z,4.63
2022-07-30T20:41:16.574Z,4.45
2022-07-30T20:43:52.072Z,3.47
2022-07-30T20:46:22.980Z,4.40
2022-07-30T20:48:53.773Z,4.40
2022-07-30T20:51:33.595Z,3.55
2022-07-30T20:54:02.206Z,3.40
2022-07-30T20:56:30.734Z,4.13
2022-07-30T20:58:58.838Z,3.90
2022-07-30T21:01:28.343Z,3.20
2022-07-30T21:04:00.167Z,4.28
2022-07-30T21:06:28.388Z,4.60
2022-07-30T21:08:56.743Z,4.85
2022-07-30T21:11:25.165Z,4.90
2022-07-30T21:13:53.961Z,5.63
2022-07-30T21:16:23.757Z,5.82
2022-07-30T21:18:52.154Z,5.68
2022-07-30T21:21:29.071Z,5.53
2022-07-30T21:24:11.395Z,4.53
2022-07-30T21:26:41.621Z,4.60
2022-07-30T21:29:10.277Z,4.75
2022-07-30T21:32:01.400Z,5.25
2022-07-30T21:34:30.886Z,4.72
2022-07-30T21:37:04.867Z,4.80
2022-07-30T21:39:33.289Z,4.97
2022-07-30T21:42:08.672Z,5.95
2022-07-30T21:44:38.441Z,5.13
2022-07-30T21:47:10.054Z,5.43
2022-07-30T21:49:39.482Z,6.25
2022-07-30T21:52:09.677Z,6.63
2022-07-30T21:54:45.603Z,6.93
2022-07-30T21:57:23.257Z,5.93
2022-07-30T21:59:55.511Z,5.28
2022-07-30T22:02:24.257Z,5.15
2022-07-30T22:04:53.725Z,5.47
2022-07-30T22:07:23.837Z,5.97
2022-07-30T22:09:52.505Z,6.43
2022-07-30T22:12:20.679Z,6.43
2022-07-30T22:14:49.630Z,6.05
2022-07-30T22:17:23.446Z,5.03
2022-07-30T22:19:54.454Z,4.78
2022-07-30T22:22:26.299Z,5.53
2022-07-30T22:24:58.314Z,5.10
2022-07-30T22:30:20.380Z,5.53
2022-07-30T22:32:49.278Z,5.50
2022-07-30T22:35:20.691Z,5.35
2022-07-30T22:38:04.403Z,5.05
2022-07-30T22:40:33.110Z,5.30
2022-07-30T22:43:07.517Z,6.13
2022-07-30T22:45:48.308Z,6.63
2022-07-30T22:48:20.593Z,5.57
2022-07-30T22:51:06.123Z,6.05
2022-07-30T22:53:56.803Z,6.00
2022-07-30T22:56:32.508Z,5.10
2022-07-30T22:59:00.912Z,6.03
2022-07-30T23:01:29.444Z,6.10
2022-07-30T23:04:02.102Z,5.28
2022-07-30T23:06:30.299Z,5.75
2022-07-30T23:08:59.900Z,5.57
2022-07-30T23:11:37.144Z,5.32
2022-07-30T23:12:33.132Z,5.60
2022-07-30T23:14:08.794Z,6.18
2022-07-30T23:16:37.386Z,6.47
2022-07-30T23:19:06.653Z,6.10
2022-07-30T23:21:35.480Z,6.07
2022-07-30T23:24:06.454Z,6.25
2022-07-30T23:26:36.882Z,6.93
2022-07-30T23:29:05.056Z,6.20
2022-07-30T23:31:33.198Z,6.82
2022-07-30T23:34:01.417Z,6.40
2022-07-30T23:36:29.889Z,7.35
2022-07-30T23:38:58.609Z,7.53
2022-07-30T23:41:30.544Z,7.03
2022-07-30T23:43:59.655Z,7.30
2022-07-30T23:46:27.968Z,6.82
2022-07-30T23:48:56.070Z,7.25
2022-07-30T23:51:24.125Z,7.60
2022-07-30T23:53:54.606Z,6.90
2022-07-30T23:56:22.791Z,7.82
2022-07-30T23:58:52.291Z,8.10
